sensor_id;sensor_type;location;lat;lon;timestamp;P1;durP1;ratioP1;P2;durP2;ratioP2
15913;SDS011;8055;51.930;8.840;2022-10-31T00:02:04;18.63;;;8.45;;
15913;SDS011;8055;51.930;8.840;2022-10-31T00:04:29;18.48;;;7.90;;
15913;SDS011;8055;51.930;8.840;2022-10-31T00:06:54;17.27;;;9.00;;
15913;SDS011;8055;51.930;8.840;2022-10-31T00:09:20;16.65;;;9.05;;
15913;SDS011;8055;51.930;8.840;2022-10-31T00:11:45;17.90;;;9.23;;
15913;SDS011;8055;51.930;8.840;2022-10-31T00:14:10;12.70;;;8.82;;
15913;SDS011;8055;51.930;8.840;2022-10-31T00:16:36;15.50;;;8.55;;
15913;SDS011;8055;51.930;8.840;2022-10-31T00:19:02;16.70;;;8.23;;
15913;SDS011;8055;51.930;8.840;2022-10-31T00:21:29;16.35;;;8.05;;
15913;SDS011;8055;51.930;8.840;2022-10-31T00:23:56;16.67;;;7.63;;
15913;SDS011;8055;51.930;8.840;2022-10-31T00:26:23;17.10;;;7.85;;
15913;SDS011;8055;51.930;8.840;2022-10-31T00:28:49;19.38;;;8.88;;
15913;SDS011;8055;51.930;8.840;2022-10-31T00:31:16;15.32;;;8.57;;
15913;SDS011;8055;51.930;8.840;2022-10-31T00:33:42;19.38;;;8.98;;
15913;SDS011;8055;51.930;8.840;2022-10-31T00:36:08;20.60;;;8.80;;
15913;SDS011;8055;51.930;8.840;2022-10-31T00:38:37;21.23;;;9.20;;
15913;SDS011;8055;51.930;8.840;2022-10-31T00:41:02;27.70;;;9.63;;
15913;SDS011;8055;51.930;8.840;2022-10-31T00:43:27;21.60;;;9.98;;
15913;SDS011;8055;51.930;8.840;2022-10-31T00:45:53;21.10;;;9.23;;
15913;SDS011;8055;51.930;8.840;2022-10-31T00:48:18;20.33;;;9.48;;
15913;SDS011;8055;51.930;8.840;2022-10-31T00:50:43;16.73;;;8.68;;
15913;SDS011;8055;51.930;8.840;2022-10-31T00:53:09;18.50;;;9.38;;
15913;SDS011;8055;51.930;8.840;2022-10-31T00:55:34;13.57;;;8.18;;
15913;SDS011;8055;51.930;8.840;2022-10-31T00:57:59;13.77;;;9.07;;
15913;SDS011;8055;51.930;8.840;2022-10-31T01:00:25;17.35;;;8.20;;
15913;SDS011;8055;51.930;8.840;2022-10-31T01:02:50;14.68;;;7.72;;
15913;SDS011;8055;51.930;8.840;2022-10-31T01:05:16;15.90;;;9.30;;
15913;SDS011;8055;51.930;8.840;2022-10-31T01:07:42;15.88;;;8.75;;
15913;SDS011;8055;51.930;8.840;2022-10-31T01:10:08;18.35;;;7.93;;
15913;SDS011;8055;51.930;8.840;2022-10-31T01:12:38;16.42;;;8.13;;
15913;SDS011;8055;51.930;8.840;2022-10-31T01:15:05;14.55;;;8.32;;
15913;SDS011;8055;51.930;8.840;2022-10-31T01:17:31;15.90;;;8.93;;
15913;SDS011;8055;51.930;8.840;2022-10-31T01:19:56;20.35;;;8.43;;
15913;SDS011;8055;51.930;8.840;2022-10-31T01:22:21;17.05;;;9.57;;
15913;SDS011;8055;51.930;8.840;2022-10-31T01:24:47;16.98;;;8.90;;
15913;SDS011;8055;51.930;8.840;2022-10-31T01:27:12;20.17;;;9.02;;
15913;SDS011;8055;51.930;8.840;2022-10-31T01:29:38;22.08;;;10.27;;
15913;SDS011;8055;51.930;8.840;2022-10-31T01:32:03;20.35;;;10.45;;
15913;SDS011;8055;51.930;8.840;2022-10-31T01:34:29;16.42;;;10.10;;
15913;SDS011;8055;51.930;8.840;2022-10-31T01:36:54;20.08;;;9.38;;
15913;SDS011;8055;51.930;8.840;2022-10-31T01:39:19;20.50;;;10.55;;
15913;SDS011;8055;51.930;8.840;2022-10-31T01:41:46;22.48;;;11.13;;
15913;SDS011;8055;51.930;8.840;2022-10-31T01:46:40;21.50;;;11.30;;
15913;SDS011;8055;51.930;8.840;2022-10-31T01:49:09;20.73;;;10.60;;
15913;SDS011;8055;51.930;8.840;2022-10-31T01:51:38;19.33;;;11.35;;
15913;SDS011;8055;51.930;8.840;2022-10-31T01:54:11;20.50;;;11.10;;
15913;SDS011;8055;51.930;8.840;2022-10-31T01:56:41;17.35;;;10.40;;
15913;SDS011;8055;51.930;8.840;2022-10-31T01:59:11;22.58;;;11.10;;
15913;SDS011;8055;51.930;8.840;2022-10-31T02:01:41;20.05;;;11.75;;
15913;SDS011;8055;51.930;8.840;2022-10-31T02:04:06;24.10;;;13.40;;
15913;SDS011;8055;51.930;8.840;2022-10-31T02:09:04;18.00;;;10.82;;
15913;SDS011;8055;51.930;8.840;2022-10-31T02:11:30;21.85;;;11.85;;
15913;SDS011;8055;51.930;8.840;2022-10-31T02:13:58;21.70;;;12.48;;
15913;SDS011;8055;51.930;8.840;2022-10-31T02:16:25;25.80;;;11.98;;
15913;SDS011;8055;51.930;8.840;2022-10-31T02:18:50;24.02;;;13.18;;
15913;SDS011;8055;51.930;8.840;2022-10-31T02:21:22;24.35;;;11.50;;
15913;SDS011;8055;51.930;8.840;2022-10-31T02:26:49;23.85;;;11.27;;
15913;SDS011;8055;51.930;8.840;2022-10-31T02:32:14;22.42;;;11.68;;
15913;SDS011;8055;51.930;8.840;2022-10-31T02:35:04;24.25;;;12.43;;
15913;SDS011;8055;51.930;8.840;2022-10-31T02:38:07;18.10;;;12.07;;
15913;SDS011;8055;51.930;8.840;2022-10-31T02:40:41;29.20;;;13.40;;
15913;SDS011;8055;51.930;8.840;2022-10-31T02:49:59;27.88;;;13.80;;
15913;SDS011;8055;51.930;8.840;2022-10-31T02:57:50;21.63;;;13.45;;
15913;SDS011;8055;51.930;8.840;2022-10-31T03:00:19;28.38;;;15.90;;
15913;SDS011;8055;51.930;8.840;2022-10-31T03:02:52;24.58;;;13.95;;
15913;SDS011;8055;51.930;8.840;2022-10-31T03:06:05;26.38;;;14.23;;
15913;SDS011;8055;51.930;8.840;2022-10-31T03:08:35;21.25;;;13.32;;
15913;SDS011;8055;51.930;8.840;2022-10-31T03:11:11;28.58;;;14.70;;
15913;SDS011;8055;51.930;8.840;2022-10-31T03:16:23;31.58;;;12.75;;
15913;SDS011;8055;51.930;8.840;2022-10-31T03:24:02;22.30;;;12.77;;
15913;SDS011;8055;51.930;8.840;2022-10-31T03:26:31;26.30;;;14.38;;
15913;SDS011;8055;51.930;8.840;2022-10-31T03:29:01;27.05;;;15.45;;
15913;SDS011;8055;51.930;8.840;2022-10-31T03:31:33;31.80;;;15.75;;
15913;SDS011;8055;51.930;8.840;2022-10-31T03:34:03;31.60;;;16.40;;
15913;SDS011;8055;51.930;8.840;2022-10-31T03:36:31;26.67;;;15.73;;
15913;SDS011;8055;51.930;8.840;2022-10-31T03:39:01;27.60;;;16.00;;
15913;SDS011;8055;51.930;8.840;2022-10-31T03:41:31;29.85;;;16.40;;
15913;SDS011;8055;51.930;8.840;2022-10-31T03:44:00;30.45;;;17.08;;
15913;SDS011;8055;51.930;8.840;2022-10-31T03:46:28;31.42;;;17.38;;
15913;SDS011;8055;51.930;8.840;2022-10-31T03:48:54;28.88;;;17.08;;
15913;SDS011;8055;51.930;8.840;2022-10-31T03:51:22;28.83;;;16.05;;
15913;SDS011;8055;51.930;8.840;2022-10-31T03:53:57;31.77;;;15.43;;
15913;SDS011;8055;51.930;8.840;2022-10-31T03:57:08;24.67;;;13.68;;
15913;SDS011;8055;51.930;8.840;2022-10-31T03:59:41;33.22;;;15.43;;
15913;SDS011;8055;51.930;8.840;2022-10-31T04:02:14;22.60;;;14.18;;
15913;SDS011;8055;51.930;8.840;2022-10-31T04:04:42;30.77;;;16.48;;
15913;SDS011;8055;51.930;8.840;2022-10-31T04:07:09;29.83;;;16.00;;
15913;SDS011;8055;51.930;8.840;2022-10-31T04:09:36;29.75;;;16.73;;
15913;SDS011;8055;51.930;8.840;2022-10-31T04:12:06;29.50;;;15.70;;
15913;SDS011;8055;51.930;8.840;2022-10-31T04:14:34;25.02;;;15.35;;
15913;SDS011;8055;51.930;8.840;2022-10-31T04:17:03;23.58;;;15.52;;
15913;SDS011;8055;51.930;8.840;2022-10-31T04:19:34;27.17;;;15.35;;
15913;SDS011;8055;51.930;8.840;2022-10-31T04:21:59;36.53;;;18.02;;
15913;SDS011;8055;51.930;8.840;2022-10-31T04:24:25;23.75;;;15.50;;
15913;SDS011;8055;51.930;8.840;2022-10-31T04:26:50;32.63;;;17.23;;
15913;SDS011;8055;51.930;8.840;2022-10-31T04:29:15;34.90;;;19.38;;
15913;SDS011;8055;51.930;8.840;2022-10-31T04:31:41;30.48;;;18.23;;
15913;SDS011;8055;51.930;8.840;2022-10-31T04:34:06;28.17;;;16.63;;
15913;SDS011;8055;51.930;8.840;2022-10-31T04:36:32;34.10;;;18.48;;
15913;SDS011;8055;51.930;8.840;2022-10-31T04:38:58;32.17;;;18.92;;
15913;SDS011;8055;51.930;8.840;2022-10-31T04:41:23;36.30;;;18.98;;
15913;SDS011;8055;51.930;8.840;2022-10-31T04:43:48;37.08;;;18.90;;
15913;SDS011;8055;51.930;8.840;2022-10-31T04:46:14;35.95;;;19.90;;
15913;SDS011;8055;51.930;8.840;2022-10-31T04:48:39;31.17;;;18.02;;
15913;SDS011;8055;51.930;8.840;2022-10-31T04:51:05;27.85;;;16.08;;
15913;SDS011;8055;51.930;8.840;2022-10-31T04:53:30;30.10;;;18.17;;
15913;SDS011;8055;51.930;8.840;2022-10-31T04:55:57;29.13;;;16.40;;
15913;SDS011;8055;51.930;8.840;2022-10-31T04:58:24;30.80;;;18.02;;
15913;SDS011;8055;51.930;8.840;2022-10-31T05:00:52;32.17;;;17.77;;
15913;SDS011;8055;51.930;8.840;2022-10-31T05:03:18;29.65;;;16.58;;
15913;SDS011;8055;51.930;8.840;2022-10-31T05:05:44;36.58;;;19.33;;
15913;SDS011;8055;51.930;8.840;2022-10-31T05:08:09;35.58;;;19.02;;
15913;SDS011;8055;51.930;8.840;2022-10-31T05:10:35;31.13;;;17.40;;
15913;SDS011;8055;51.930;8.840;2022-10-31T05:13:01;28.25;;;17.77;;
15913;SDS011;8055;51.930;8.840;2022-10-31T05:15:27;28.15;;;16.38;;
15913;SDS011;8055;51.930;8.840;2022-10-31T05:17:53;33.70;;;18.60;;
15913;SDS011;8055;51.930;8.840;2022-10-31T05:20:21;31.45;;;17.83;;
15913;SDS011;8055;51.930;8.840;2022-10-31T05:22:48;35.72;;;20.10;;
15913;SDS011;8055;51.930;8.840;2022-10-31T05:25:16;31.33;;;17.60;;
15913;SDS011;8055;51.930;8.840;2022-10-31T05:27:43;26.63;;;16.63;;
15913;SDS011;8055;51.930;8.840;2022-10-31T05:30:11;33.65;;;18.55;;
15913;SDS011;8055;51.930;8.840;2022-10-31T05:32:39;29.60;;;17.60;;
15913;SDS011;8055;51.930;8.840;2022-10-31T05:35:06;33.53;;;17.42;;
15913;SDS011;8055;51.930;8.840;2022-10-31T05:37:33;34.40;;;17.48;;
15913;SDS011;8055;51.930;8.840;2022-10-31T05:40:00;31.40;;;18.10;;
15913;SDS011;8055;51.930;8.840;2022-10-31T05:42:25;31.45;;;18.38;;
15913;SDS011;8055;51.930;8.840;2022-10-31T05:44:50;29.02;;;17.60;;
15913;SDS011;8055;51.930;8.840;2022-10-31T05:47:16;31.67;;;19.08;;
15913;SDS011;8055;51.930;8.840;2022-10-31T05:49:41;33.83;;;18.63;;
15913;SDS011;8055;51.930;8.840;2022-10-31T05:52:07;34.80;;;19.20;;
15913;SDS011;8055;51.930;8.840;2022-10-31T05:54:32;33.20;;;19.00;;
15913;SDS011;8055;51.930;8.840;2022-10-31T05:56:57;30.90;;;17.48;;
15913;SDS011;8055;51.930;8.840;2022-10-31T05:59:22;37.30;;;19.25;;
15913;SDS011;8055;51.930;8.840;2022-10-31T06:01:48;28.90;;;17.30;;
15913;SDS011;8055;51.930;8.840;2022-10-31T06:04:13;29.08;;;16.55;;
15913;SDS011;8055;51.930;8.840;2022-10-31T06:06:39;29.10;;;16.98;;
15913;SDS011;8055;51.930;8.840;2022-10-31T06:09:04;35.45;;;18.65;;
15913;SDS011;8055;51.930;8.840;2022-10-31T06:11:29;34.55;;;19.30;;
15913;SDS011;8055;51.930;8.840;2022-10-31T06:13:55;40.75;;;20.60;;
15913;SDS011;8055;51.930;8.840;2022-10-31T06:16:20;34.75;;;19.25;;
15913;SDS011;8055;51.930;8.840;2022-10-31T06:18:48;36.08;;;20.50;;
15913;SDS011;8055;51.930;8.840;2022-10-31T06:21:13;39.33;;;20.30;;
15913;SDS011;8055;51.930;8.840;2022-10-31T06:23:38;37.25;;;19.92;;
15913;SDS011;8055;51.930;8.840;2022-10-31T06:26:04;30.00;;;17.95;;
15913;SDS011;8055;51.930;8.840;2022-10-31T06:28:29;35.13;;;19.38;;
15913;SDS011;8055;51.930;8.840;2022-10-31T06:30:55;36.03;;;19.52;;
15913;SDS011;8055;51.930;8.840;2022-10-31T06:33:20;31.50;;;16.50;;
15913;SDS011;8055;51.930;8.840;2022-10-31T06:35:46;26.38;;;16.00;;
15913;SDS011;8055;51.930;8.840;2022-10-31T06:38:12;32.60;;;18.05;;
15913;SDS011;8055;51.930;8.840;2022-10-31T06:40:38;33.65;;;17.58;;
15913;SDS011;8055;51.930;8.840;2022-10-31T06:43:03;33.10;;;19.13;;
15913;SDS011;8055;51.930;8.840;2022-10-31T06:45:29;32.63;;;17.88;;
15913;SDS011;8055;51.930;8.840;2022-10-31T06:47:55;42.90;;;18.35;;
15913;SDS011;8055;51.930;8.840;2022-10-31T06:50:21;32.88;;;17.50;;
15913;SDS011;8055;51.930;8.840;2022-10-31T06:52:54;32.13;;;17.20;;
15913;SDS011;8055;51.930;8.840;2022-10-31T06:55:21;39.05;;;18.90;;
15913;SDS011;8055;51.930;8.840;2022-10-31T07:00:17;30.50;;;17.65;;
15913;SDS011;8055;51.930;8.840;2022-10-31T07:02:42;31.15;;;15.90;;
15913;SDS011;8055;51.930;8.840;2022-10-31T07:05:08;32.25;;;17.98;;
15913;SDS011;8055;51.930;8.840;2022-10-31T07:07:33;28.50;;;16.70;;
15913;SDS011;8055;51.930;8.840;2022-10-31T07:09:58;27.20;;;15.98;;
15913;SDS011;8055;51.930;8.840;2022-10-31T07:12:24;31.83;;;17.10;;
15913;SDS011;8055;51.930;8.840;2022-10-31T07:14:49;32.85;;;18.35;;
15913;SDS011;8055;51.930;8.840;2022-10-31T07:17:14;31.08;;;16.98;;
15913;SDS011;8055;51.930;8.840;2022-10-31T07:19:40;29.83;;;17.35;;
15913;SDS011;8055;51.930;8.840;2022-10-31T07:22:06;35.17;;;18.15;;
15913;SDS011;8055;51.930;8.840;2022-10-31T07:24:31;35.55;;;19.17;;
15913;SDS011;8055;51.930;8.840;2022-10-31T07:26:56;30.83;;;18.38;;
15913;SDS011;8055;51.930;8.840;2022-10-31T07:29:22;33.13;;;18.75;;
15913;SDS011;8055;51.930;8.840;2022-10-31T07:31:47;31.10;;;18.42;;
15913;SDS011;8055;51.930;8.840;2022-10-31T07:34:13;33.25;;;18.90;;
15913;SDS011;8055;51.930;8.840;2022-10-31T07:36:38;38.28;;;19.73;;
15913;SDS011;8055;51.930;8.840;2022-10-31T07:39:03;39.13;;;19.52;;
15913;SDS011;8055;51.930;8.840;2022-10-31T07:41:29;35.22;;;21.00;;
15913;SDS011;8055;51.930;8.840;2022-10-31T07:43:54;42.15;;;22.55;;
15913;SDS011;8055;51.930;8.840;2022-10-31T07:46:21;36.88;;;21.77;;
15913;SDS011;8055;51.930;8.840;2022-10-31T07:48:47;44.83;;;26.17;;
15913;SDS011;8055;51.930;8.840;2022-10-31T07:51:12;46.22;;;24.98;;
15913;SDS011;8055;51.930;8.840;2022-10-31T07:53:37;43.92;;;25.15;;
15913;SDS011;8055;51.930;8.840;2022-10-31T07:56:03;46.08;;;25.40;;
15913;SDS011;8055;51.930;8.840;2022-10-31T07:58:28;44.28;;;23.83;;
15913;SDS011;8055;51.930;8.840;2022-10-31T08:00:54;40.72;;;24.75;;
15913;SDS011;8055;51.930;8.840;2022-10-31T08:03:19;46.50;;;25.42;;
15913;SDS011;8055;51.930;8.840;2022-10-31T08:05:44;44.17;;;23.55;;
15913;SDS011;8055;51.930;8.840;2022-10-31T08:08:11;43.58;;;23.83;;
15913;SDS011;8055;51.930;8.840;2022-10-31T08:10:37;41.08;;;23.00;;
15913;SDS011;8055;51.930;8.840;2022-10-31T08:13:11;41.60;;;21.73;;
15913;SDS011;8055;51.930;8.840;2022-10-31T08:15:37;35.67;;;19.45;;
15913;SDS011;8055;51.930;8.840;2022-10-31T08:18:06;35.67;;;20.33;;
15913;SDS011;8055;51.930;8.840;2022-10-31T08:20:35;35.53;;;20.00;;
15913;SDS011;8055;51.930;8.840;2022-10-31T08:23:02;32.97;;;18.17;;
15913;SDS011;8055;51.930;8.840;2022-10-31T08:25:35;30.20;;;19.65;;
15913;SDS011;8055;51.930;8.840;2022-10-31T08:28:01;35.58;;;21.75;;
15913;SDS011;8055;51.930;8.840;2022-10-31T08:30:27;45.40;;;23.80;;
15913;SDS011;8055;51.930;8.840;2022-10-31T08:33:00;39.75;;;24.67;;
15913;SDS011;8055;51.930;8.840;2022-10-31T08:35:31;43.22;;;23.35;;
15913;SDS011;8055;51.930;8.840;2022-10-31T08:37:57;43.95;;;24.73;;
15913;SDS011;8055;51.930;8.840;2022-10-31T08:40:23;40.25;;;24.50;;
15913;SDS011;8055;51.930;8.840;2022-10-31T08:43:22;41.10;;;25.85;;
15913;SDS011;8055;51.930;8.840;2022-10-31T08:45:41;40.22;;;25.33;;
15913;SDS011;8055;51.930;8.840;2022-10-31T08:48:11;54.88;;;31.67;;
15913;SDS011;8055;51.930;8.840;2022-10-31T08:50:38;51.47;;;29.50;;
15913;SDS011;8055;51.930;8.840;2022-10-31T08:53:05;47.72;;;29.60;;
15913;SDS011;8055;51.930;8.840;2022-10-31T08:55:35;45.03;;;27.15;;
15913;SDS011;8055;51.930;8.840;2022-10-31T08:58:02;50.53;;;30.42;;
15913;SDS011;8055;51.930;8.840;2022-10-31T09:00:28;49.45;;;30.58;;
15913;SDS011;8055;51.930;8.840;2022-10-31T09:02:55;44.58;;;25.90;;
15913;SDS011;8055;51.930;8.840;2022-10-31T09:05:21;53.25;;;29.77;;
15913;SDS011;8055;51.930;8.840;2022-10-31T09:07:47;46.28;;;27.30;;
15913;SDS011;8055;51.930;8.840;2022-10-31T09:10:12;50.05;;;28.10;;
15913;SDS011;8055;51.930;8.840;2022-10-31T09:12:38;46.35;;;27.52;;
15913;SDS011;8055;51.930;8.840;2022-10-31T09:15:03;41.33;;;26.75;;
15913;SDS011;8055;51.930;8.840;2022-10-31T09:17:31;52.55;;;32.80;;
15913;SDS011;8055;51.930;8.840;2022-10-31T09:19:56;50.60;;;31.23;;
15913;SDS011;8055;51.930;8.840;2022-10-31T09:22:22;52.30;;;31.65;;
15913;SDS011;8055;51.930;8.840;2022-10-31T09:24:47;58.40;;;35.65;;
15913;SDS011;8055;51.930;8.840;2022-10-31T09:27:13;61.92;;;34.85;;
15913;SDS011;8055;51.930;8.840;2022-10-31T09:29:38;62.78;;;37.92;;
15913;SDS011;8055;51.930;8.840;2022-10-31T09:32:03;53.50;;;33.05;;
15913;SDS011;8055;51.930;8.840;2022-10-31T09:34:29;51.40;;;31.73;;
15913;SDS011;8055;51.930;8.840;2022-10-31T09:36:54;52.25;;;31.98;;
15913;SDS011;8055;51.930;8.840;2022-10-31T09:39:19;49.35;;;30.35;;
15913;SDS011;8055;51.930;8.840;2022-10-31T09:41:57;53.58;;;32.22;;
15913;SDS011;8055;51.930;8.840;2022-10-31T09:56:17;41.20;;;27.02;;
15913;SDS011;8055;51.930;8.840;2022-10-31T09:58:46;55.22;;;30.30;;
15913;SDS011;8055;51.930;8.840;2022-10-31T10:01:22;45.78;;;26.92;;
15913;SDS011;8055;51.930;8.840;2022-10-31T10:04:02;42.80;;;27.73;;
15913;SDS011;8055;51.930;8.840;2022-10-31T10:07:19;40.10;;;26.80;;
15913;SDS011;8055;51.930;8.840;2022-10-31T10:09:51;46.13;;;27.52;;
15913;SDS011;8055;51.930;8.840;2022-10-31T10:12:27;48.33;;;28.02;;
15913;SDS011;8055;51.930;8.840;2022-10-31T10:15:30;42.72;;;26.45;;
15913;SDS011;8055;51.930;8.840;2022-10-31T10:28:38;40.10;;;23.98;;
15913;SDS011;8055;51.930;8.840;2022-10-31T10:31:08;40.47;;;23.23;;
15913;SDS011;8055;51.930;8.840;2022-10-31T10:36:18;42.55;;;24.27;;
15913;SDS011;8055;51.930;8.840;2022-10-31T10:38:52;40.15;;;23.63;;
15913;SDS011;8055;51.930;8.840;2022-10-31T10:41:21;35.17;;;20.60;;
15913;SDS011;8055;51.930;8.840;2022-10-31T10:43:49;37.83;;;22.05;;
15913;SDS011;8055;51.930;8.840;2022-10-31T10:49:20;36.33;;;20.25;;
15913;SDS011;8055;51.930;8.840;2022-10-31T10:52:10;33.83;;;19.63;;
15913;SDS011;8055;51.930;8.840;2022-10-31T11:02:54;30.98;;;18.67;;
15913;SDS011;8055;51.930;8.840;2022-10-31T11:05:23;31.85;;;17.65;;
15913;SDS011;8055;51.930;8.840;2022-10-31T11:07:51;27.95;;;16.98;;
15913;SDS011;8055;51.930;8.840;2022-10-31T11:10:17;27.13;;;16.23;;
15913;SDS011;8055;51.930;8.840;2022-10-31T11:12:44;25.17;;;15.95;;
15913;SDS011;8055;51.930;8.840;2022-10-31T11:15:22;19.92;;;13.52;;
15913;SDS011;8055;51.930;8.840;2022-10-31T11:17:50;26.15;;;12.98;;
15913;SDS011;8055;51.930;8.840;2022-10-31T11:22:43;23.47;;;12.83;;
15913;SDS011;8055;51.930;8.840;2022-10-31T11:27:44;23.08;;;12.95;;
15913;SDS011;8055;51.930;8.840;2022-10-31T11:30:11;23.45;;;11.93;;
15913;SDS011;8055;51.930;8.840;2022-10-31T11:32:39;31.67;;;12.63;;
15913;SDS011;8055;51.930;8.840;2022-10-31T11:35:12;22.75;;;12.55;;
15913;SDS011;8055;51.930;8.840;2022-10-31T11:37:43;23.25;;;12.77;;
15913;SDS011;8055;51.930;8.840;2022-10-31T11:40:18;21.73;;;11.40;;
15913;SDS011;8055;51.930;8.840;2022-10-31T11:42:46;23.10;;;10.95;;
15913;SDS011;8055;51.930;8.840;2022-10-31T11:45:26;21.85;;;10.80;;
15913;SDS011;8055;51.930;8.840;2022-10-31T11:47:53;16.35;;;9.77;;
15913;SDS011;8055;51.930;8.840;2022-10-31T11:50:37;18.77;;;9.20;;
15913;SDS011;8055;51.930;8.840;2022-10-31T11:53:12;16.42;;;10.32;;
15913;SDS011;8055;51.930;8.840;2022-10-31T11:55:44;18.67;;;10.07;;
15913;SDS011;8055;51.930;8.840;2022-10-31T11:58:23;19.42;;;9.98;;
15913;SDS011;8055;51.930;8.840;2022-10-31T12:00:52;17.20;;;9.25;;
15913;SDS011;8055;51.930;8.840;2022-10-31T12:06:14;24.42;;;12.48;;
15913;SDS011;8055;51.930;8.840;2022-10-31T12:08:45;18.45;;;11.43;;
15913;SDS011;8055;51.930;8.840;2022-10-31T12:14:16;20.58;;;12.07;;
15913;SDS011;8055;51.930;8.840;2022-10-31T12:19:37;18.98;;;11.90;;
15913;SDS011;8055;51.930;8.840;2022-10-31T12:25:24;17.80;;;10.75;;
15913;SDS011;8055;51.930;8.840;2022-10-31T12:41:57;21.17;;;11.75;;
15913;SDS011;8055;51.930;8.840;2022-10-31T13:00:58;18.33;;;10.73;;
15913;SDS011;8055;51.930;8.840;2022-10-31T13:03:40;19.25;;;10.57;;
15913;SDS011;8055;51.930;8.840;2022-10-31T13:06:19;19.77;;;11.75;;
15913;SDS011;8055;51.930;8.840;2022-10-31T13:08:56;18.42;;;11.35;;
15913;SDS011;8055;51.930;8.840;2022-10-31T13:11:26;19.02;;;10.88;;
15913;SDS011;8055;51.930;8.840;2022-10-31T13:14:06;20.90;;;12.20;;
15913;SDS011;8055;51.930;8.840;2022-10-31T13:16:38;18.75;;;11.35;;
15913;SDS011;8055;51.930;8.840;2022-10-31T13:21:57;18.38;;;10.65;;
15913;SDS011;8055;51.930;8.840;2022-10-31T13:26:58;15.70;;;9.90;;
15913;SDS011;8055;51.930;8.840;2022-10-31T13:29:35;15.43;;;9.85;;
15913;SDS011;8055;51.930;8.840;2022-10-31T13:32:06;15.13;;;8.80;;
15913;SDS011;8055;51.930;8.840;2022-10-31T13:34:53;16.77;;;10.40;;
15913;SDS011;8055;51.930;8.840;2022-10-31T13:37:40;21.10;;;10.15;;
15913;SDS011;8055;51.930;8.840;2022-10-31T13:40:24;18.95;;;9.73;;
15913;SDS011;8055;51.930;8.840;2022-10-31T13:43:28;21.08;;;9.43;;
15913;SDS011;8055;51.930;8.840;2022-10-31T13:46:00;15.45;;;9.30;;
15913;SDS011;8055;51.930;8.840;2022-10-31T13:48:38;18.40;;;8.65;;
15913;SDS011;8055;51.930;8.840;2022-10-31T13:51:08;13.48;;;7.88;;
15913;SDS011;8055;51.930;8.840;2022-10-31T13:53:55;14.30;;;8.82;;
15913;SDS011;8055;51.930;8.840;2022-10-31T13:56:40;14.13;;;8.43;;
15913;SDS011;8055;51.930;8.840;2022-10-31T14:01:33;17.70;;;9.48;;
15913;SDS011;8055;51.930;8.840;2022-10-31T14:04:07;17.70;;;9.77;;
15913;SDS011;8055;51.930;8.840;2022-10-31T14:06:45;15.38;;;9.02;;
15913;SDS011;8055;51.930;8.840;2022-10-31T14:09:24;14.38;;;8.20;;
15913;SDS011;8055;51.930;8.840;2022-10-31T14:11:52;15.73;;;8.10;;
15913;SDS011;8055;51.930;8.840;2022-10-31T14:14:19;14.95;;;7.97;;
15913;SDS011;8055;51.930;8.840;2022-10-31T14:16:52;15.00;;;8.07;;
15913;SDS011;8055;51.930;8.840;2022-10-31T14:19:21;15.32;;;8.45;;
15913;SDS011;8055;51.930;8.840;2022-10-31T14:21:48;17.95;;;8.55;;
15913;SDS011;8055;51.930;8.840;2022-10-31T14:34:28;14.68;;;8.43;;
15913;SDS011;8055;51.930;8.840;2022-10-31T14:37:04;19.20;;;8.82;;
15913;SDS011;8055;51.930;8.840;2022-10-31T14:42:54;18.25;;;9.13;;
15913;SDS011;8055;51.930;8.840;2022-10-31T14:51:01;18.35;;;9.35;;
15913;SDS011;8055;51.930;8.840;2022-10-31T14:53:34;17.00;;;8.68;;
15913;SDS011;8055;51.930;8.840;2022-10-31T14:56:09;13.13;;;8.43;;
15913;SDS011;8055;51.930;8.840;2022-10-31T14:58:43;17.35;;;10.00;;
15913;SDS011;8055;51.930;8.840;2022-10-31T15:03:51;18.23;;;9.73;;
15913;SDS011;8055;51.930;8.840;2022-10-31T15:06:18;14.88;;;9.75;;
15913;SDS011;8055;51.930;8.840;2022-10-31T15:08:50;16.55;;;10.13;;
15913;SDS011;8055;51.930;8.840;2022-10-31T15:11:19;15.82;;;10.23;;
15913;SDS011;8055;51.930;8.840;2022-10-31T15:16:14;14.57;;;9.63;;
15913;SDS011;8055;51.930;8.840;2022-10-31T15:18:47;19.95;;;9.60;;
15913;SDS011;8055;51.930;8.840;2022-10-31T15:21:16;17.63;;;9.52;;
15913;SDS011;8055;51.930;8.840;2022-10-31T15:23:42;16.20;;;8.88;;
15913;SDS011;8055;51.930;8.840;2022-10-31T15:26:14;15.32;;;8.77;;
15913;SDS011;8055;51.930;8.840;2022-10-31T15:28:43;15.80;;;9.00;;
15913;SDS011;8055;51.930;8.840;2022-10-31T15:31:16;17.67;;;9.07;;
15913;SDS011;8055;51.930;8.840;2022-10-31T15:33:42;18.15;;;9.63;;
15913;SDS011;8055;51.930;8.840;2022-10-31T15:36:22;15.75;;;8.93;;
15913;SDS011;8055;51.930;8.840;2022-10-31T15:38:49;16.23;;;9.43;;
15913;SDS011;8055;51.930;8.840;2022-10-31T15:41:27;20.80;;;9.90;;
15913;SDS011;8055;51.930;8.840;2022-10-31T15:44:20;18.02;;;9.77;;
15913;SDS011;8055;51.930;8.840;2022-10-31T15:47:05;18.13;;;9.45;;
15913;SDS011;8055;51.930;8.840;2022-10-31T15:49:41;15.45;;;9.15;;
15913;SDS011;8055;51.930;8.840;2022-10-31T15:52:14;17.20;;;10.07;;
15913;SDS011;8055;51.930;8.840;2022-10-31T15:54:46;18.73;;;9.63;;
15913;SDS011;8055;51.930;8.840;2022-10-31T15:57:14;26.73;;;12.00;;
15913;SDS011;8055;51.930;8.840;2022-10-31T15:59:41;17.58;;;10.02;;
15913;SDS011;8055;51.930;8.840;2022-10-31T16:02:11;16.88;;;11.18;;
15913;SDS011;8055;51.930;8.840;2022-10-31T16:04:47;20.23;;;12.60;;
15913;SDS011;8055;51.930;8.840;2022-10-31T16:07:15;18.60;;;10.52;;
15913;SDS011;8055;51.930;8.840;2022-10-31T16:10:02;16.80;;;10.10;;
15913;SDS011;8055;51.930;8.840;2022-10-31T16:12:35;19.75;;;10.98;;
15913;SDS011;8055;51.930;8.840;2022-10-31T16:15:02;24.55;;;11.48;;
15913;SDS011;8055;51.930;8.840;2022-10-31T16:17:29;20.23;;;11.27;;
15913;SDS011;8055;51.930;8.840;2022-10-31T16:19:59;22.23;;;11.40;;
15913;SDS011;8055;51.930;8.840;2022-10-31T16:22:46;22.65;;;10.70;;
15913;SDS011;8055;51.930;8.840;2022-10-31T16:25:15;23.77;;;11.82;;
15913;SDS011;8055;51.930;8.840;2022-10-31T16:27:48;22.60;;;11.75;;
15913;SDS011;8055;51.930;8.840;2022-10-31T16:33:25;24.98;;;11.27;;
15913;SDS011;8055;51.930;8.840;2022-10-31T16:35:52;20.25;;;11.07;;
15913;SDS011;8055;51.930;8.840;2022-10-31T16:38:22;20.67;;;11.60;;
15913;SDS011;8055;51.930;8.840;2022-10-31T16:40:47;21.17;;;11.45;;
15913;SDS011;8055;51.930;8.840;2022-10-31T16:43:15;17.15;;;10.60;;
15913;SDS011;8055;51.930;8.840;2022-10-31T16:46:00;22.48;;;11.68;;
15913;SDS011;8055;51.930;8.840;2022-10-31T16:48:26;18.98;;;10.98;;
15913;SDS011;8055;51.930;8.840;2022-10-31T16:50:51;23.02;;;12.52;;
15913;SDS011;8055;51.930;8.840;2022-10-31T16:53:17;20.30;;;12.05;;
15913;SDS011;8055;51.930;8.840;2022-10-31T16:55:44;25.33;;;12.55;;
15913;SDS011;8055;51.930;8.840;2022-10-31T16:58:15;19.17;;;12.40;;
15913;SDS011;8055;51.930;8.840;2022-10-31T17:00:43;26.08;;;13.98;;
15913;SDS011;8055;51.930;8.840;2022-10-31T17:03:09;24.30;;;13.27;;
15913;SDS011;8055;51.930;8.840;2022-10-31T17:05:35;25.83;;;13.60;;
15913;SDS011;8055;51.930;8.840;2022-10-31T17:08:02;29.35;;;13.52;;
15913;SDS011;8055;51.930;8.840;2022-10-31T17:10:28;21.33;;;14.00;;
15913;SDS011;8055;51.930;8.840;2022-10-31T17:12:53;24.08;;;12.90;;
15913;SDS011;8055;51.930;8.840;2022-10-31T17:15:22;19.23;;;13.25;;
15913;SDS011;8055;51.930;8.840;2022-10-31T17:17:49;23.48;;;13.55;;
15913;SDS011;8055;51.930;8.840;2022-10-31T17:20:28;23.48;;;14.73;;
15913;SDS011;8055;51.930;8.840;2022-10-31T17:22:55;26.25;;;13.57;;
15913;SDS011;8055;51.930;8.840;2022-10-31T17:25:24;25.73;;;14.80;;